createdAt,value
2019-03-19T19:21:14.755Z,26.13
2019-03-19T19:23:46.415Z,26.12
2019-03-19T19:26:19.103Z,26.08
2019-03-19T19:28:50.978Z,26.08
2019-03-19T19:31:22.851Z,25.80
2019-03-19T19:33:54.586Z,25.79
2019-03-19T19:36:26.100Z,25.79
2019-03-19T19:38:57.849Z,25.77
2019-03-19T19:41:29.516Z,25.85
2019-03-19T19:44:01.611Z,25.85
2019-03-19T19:46:33.309Z,25.69
2019-03-19T19:49:05.129Z,25.51
2019-03-19T19:51:36.726Z,25.60
2019-03-19T19:54:08.629Z,25.60
2019-03-19T19:56:40.177Z,25.60
2019-03-19T19:59:11.858Z,25.28
2019-03-19T20:01:43.471Z,25.39
2019-03-19T20:04:15.537Z,25.56
2019-03-19T20:06:47.321Z,25.34
2019-03-19T20:09:19.010Z,25.34
2019-03-19T20:11:50.766Z,25.47
2019-03-19T20:14:22.479Z,25.42
2019-03-19T20:16:54.383Z,25.42
2019-03-19T20:19:25.970Z,25.41
2019-03-19T20:21:57.444Z,25.41
2019-03-19T20:24:29.385Z,25.44
2019-03-19T20:27:01.153Z,25.39
2019-03-19T20:29:33.158Z,25.39
2019-03-19T20:32:04.866Z,25.39
2019-03-19T20:34:36.902Z,25.04
2019-03-19T20:37:08.398Z,25.04
2019-03-19T20:39:39.783Z,25.14
2019-03-19T20:42:11.560Z,25.17
2019-03-19T20:44:43.120Z,25.17
2019-03-19T20:47:14.619Z,25.28
2019-03-19T20:49:47.837Z,25.28
2019-03-19T20:52:19.482Z,25.28
2019-03-19T20:54:52.416Z,25.16
2019-03-19T20:57:24.036Z,25.16
2019-03-19T20:59:55.644Z,25.15
2019-03-19T21:02:27.438Z,25.15
2019-03-19T21:04:59.106Z,24.89
2019-03-19T21:07:31.055Z,25.04
2019-03-19T21:10:02.994Z,25.14
2019-03-19T21:12:34.917Z,25.14
2019-03-19T21:15:07.881Z,25.15
2019-03-19T21:17:39.884Z,25.24
2019-03-19T21:20:11.634Z,25.19
2019-03-19T21:22:43.631Z,25.06
2019-03-19T21:25:15.640Z,25.06
2019-03-19T21:27:47.374Z,25.01
2019-03-19T21:30:19.290Z,25.14
2019-03-19T21:32:51.025Z,24.92
2019-03-19T21:35:23.044Z,25.05
2019-03-19T21:37:54.696Z,25.05
2019-03-19T21:40:26.486Z,25.06
2019-03-19T21:42:58.442Z,24.90
2019-03-19T21:45:30.358Z,24.83
2019-03-19T21:48:02.189Z,24.86
2019-03-19T21:50:33.898Z,24.75
2019-03-19T21:53:05.487Z,24.75
2019-03-19T21:55:37.143Z,24.86
2019-03-19T21:58:08.892Z,24.92
2019-03-19T22:00:40.921Z,24.73
2019-03-19T22:03:12.461Z,24.73
2019-03-19T22:05:43.981Z,24.76
2019-03-19T22:08:16.226Z,24.76
2019-03-19T22:10:47.956Z,24.80
2019-03-19T22:13:19.589Z,24.80
2019-03-19T22:15:51.403Z,24.68
2019-03-19T22:18:23.235Z,24.67
2019-03-19T22:20:54.927Z,24.46
2019-03-19T22:23:26.798Z,24.46
2019-03-19T22:25:58.588Z,24.62
2019-03-19T22:28:30.138Z,24.56
2019-03-19T22:31:02.114Z,24.56
2019-03-19T22:33:33.915Z,24.54
2019-03-19T22:36:05.572Z,24.61
2019-03-19T22:38:37.096Z,24.61
2019-03-19T22:41:08.800Z,24.53
2019-03-19T22:43:40.557Z,24.24
2019-03-19T22:46:21.282Z,24.24
2019-03-19T22:48:46.205Z,24.22
2019-03-19T22:51:17.952Z,24.41
2019-03-19T22:53:49.790Z,24.57
2019-03-19T22:56:21.999Z,24.08
2019-03-19T22:58:53.975Z,24.24
2019-03-19T23:01:25.733Z,24.24
2019-03-19T23:03:57.495Z,23.84
2019-03-19T23:06:29.381Z,23.95
2019-03-19T23:09:01.394Z,24.04
2019-03-19T23:11:34.966Z,24.04
2019-03-19T23:14:07.025Z,24.20
2019-03-19T23:16:38.801Z,24.28
2019-03-19T23:19:10.875Z,24.04
2019-03-19T23:21:42.715Z,24.11
2019-03-19T23:24:14.550Z,24.08
2019-03-19T23:26:46.190Z,24.29
2019-03-19T23:29:18.325Z,24.20
2019-03-19T23:31:50.013Z,24.20
2019-03-19T23:34:21.767Z,24.17
2019-03-19T23:36:53.775Z,24.18
2019-03-19T23:39:25.969Z,24.18
2019-03-19T23:41:57.749Z,24.14
2019-03-19T23:44:29.562Z,24.14
2019-03-19T23:47:01.475Z,23.86
2019-03-19T23:49:33.444Z,24.03
2019-03-19T23:52:05.101Z,24.07
2019-03-19T23:54:37.918Z,24.08
2019-03-19T23:57:09.766Z,24.11
2019-03-19T23:59:42.387Z,24.00
